sensor_id;sensor_type;location;lat;lon;timestamp;P1;durP1;ratioP1;P2;durP2;ratioP2
38085;SDS011;23896;50.678;10.924;2022-08-21T00:00:07;5.35;;;4.95;;
38085;SDS011;23896;50.678;10.924;2022-08-21T00:02:34;6.28;;;5.68;;
38085;SDS011;23896;50.678;10.924;2022-08-21T00:05:01;5.95;;;5.45;;
38085;SDS011;23896;50.678;10.924;2022-08-21T00:07:27;6.32;;;5.05;;
38085;SDS011;23896;50.678;10.924;2022-08-21T00:09:54;5.90;;;4.60;;
38085;SDS011;23896;50.678;10.924;2022-08-21T00:12:20;4.72;;;4.32;;
38085;SDS011;23896;50.678;10.924;2022-08-21T00:14:47;5.30;;;4.90;;
38085;SDS011;23896;50.678;10.924;2022-08-21T00:17:16;5.60;;;5.10;;
38085;SDS011;23896;50.678;10.924;2022-08-21T00:19:43;6.10;;;5.60;;
38085;SDS011;23896;50.678;10.924;2022-08-21T00:22:09;6.57;;;5.93;;
38085;SDS011;23896;50.678;10.924;2022-08-21T00:24:36;7.28;;;6.50;;
38085;SDS011;23896;50.678;10.924;2022-08-21T00:27:02;12.88;;;5.93;;
38085;SDS011;23896;50.678;10.924;2022-08-21T00:29:28;6.40;;;5.90;;
38085;SDS011;23896;50.678;10.924;2022-08-21T00:31:55;5.72;;;5.22;;
38085;SDS011;23896;50.678;10.924;2022-08-21T00:34:21;8.27;;;6.07;;
38085;SDS011;23896;50.678;10.924;2022-08-21T00:36:48;6.78;;;5.80;;
38085;SDS011;23896;50.678;10.924;2022-08-21T00:39:14;8.35;;;5.13;;
38085;SDS011;23896;50.678;10.924;2022-08-21T00:41:41;5.18;;;4.68;;
38085;SDS011;23896;50.678;10.924;2022-08-21T00:44:09;5.57;;;5.18;;
38085;SDS011;23896;50.678;10.924;2022-08-21T00:46:36;7.28;;;5.07;;
38085;SDS011;23896;50.678;10.924;2022-08-21T00:49:04;5.45;;;5.00;;
38085;SDS011;23896;50.678;10.924;2022-08-21T00:52:03;5.95;;;5.35;;
38085;SDS011;23896;50.678;10.924;2022-08-21T00:54:24;8.00;;;5.43;;
38085;SDS011;23896;50.678;10.924;2022-08-21T00:56:52;5.68;;;5.18;;
38085;SDS011;23896;50.678;10.924;2022-08-21T00:59:20;6.47;;;5.93;;
38085;SDS011;23896;50.678;10.924;2022-08-21T01:01:47;6.05;;;5.38;;
38085;SDS011;23896;50.678;10.924;2022-08-21T01:04:14;6.00;;;5.50;;
38085;SDS011;23896;50.678;10.924;2022-08-21T01:06:41;6.43;;;5.93;;
38085;SDS011;23896;50.678;10.924;2022-08-21T01:09:08;6.32;;;5.43;;
38085;SDS011;23896;50.678;10.924;2022-08-21T01:11:35;7.03;;;5.70;;
38085;SDS011;23896;50.678;10.924;2022-08-21T01:14:02;6.47;;;5.90;;
38085;SDS011;23896;50.678;10.924;2022-08-21T01:16:29;6.18;;;5.68;;
38085;SDS011;23896;50.678;10.924;2022-08-21T01:18:56;6.72;;;6.03;;
38085;SDS011;23896;50.678;10.924;2022-08-21T01:21:25;6.25;;;5.75;;
38085;SDS011;23896;50.678;10.924;2022-08-21T01:23:52;6.13;;;5.63;;
38085;SDS011;23896;50.678;10.924;2022-08-21T01:26:22;5.88;;;5.38;;
38085;SDS011;23896;50.678;10.924;2022-08-21T01:28:55;5.63;;;5.20;;
38085;SDS011;23896;50.678;10.924;2022-08-21T01:31:25;21.33;;;5.82;;
38085;SDS011;23896;50.678;10.924;2022-08-21T01:33:54;6.30;;;5.80;;
38085;SDS011;23896;50.678;10.924;2022-08-21T01:36:21;8.55;;;6.05;;
38085;SDS011;23896;50.678;10.924;2022-08-21T01:38:49;5.93;;;5.43;;
38085;SDS011;23896;50.678;10.924;2022-08-21T01:41:17;6.35;;;5.78;;
38085;SDS011;23896;50.678;10.924;2022-08-21T01:43:45;5.90;;;5.40;;
38085;SDS011;23896;50.678;10.924;2022-08-21T01:46:13;5.78;;;5.38;;
38085;SDS011;23896;50.678;10.924;2022-08-21T01:48:40;5.82;;;5.40;;
38085;SDS011;23896;50.678;10.924;2022-08-21T01:51:08;6.55;;;5.47;;
38085;SDS011;23896;50.678;10.924;2022-08-21T01:53:36;6.38;;;5.78;;
38085;SDS011;23896;50.678;10.924;2022-08-21T01:56:07;6.00;;;5.28;;
38085;SDS011;23896;50.678;10.924;2022-08-21T01:58:34;6.60;;;6.00;;
38085;SDS011;23896;50.678;10.924;2022-08-21T02:01:02;6.30;;;5.70;;
38085;SDS011;23896;50.678;10.924;2022-08-21T02:03:28;7.63;;;5.72;;
38085;SDS011;23896;50.678;10.924;2022-08-21T02:05:55;6.50;;;5.90;;
38085;SDS011;23896;50.678;10.924;2022-08-21T02:08:22;6.25;;;5.75;;
38085;SDS011;23896;50.678;10.924;2022-08-21T02:10:49;7.18;;;6.32;;
38085;SDS011;23896;50.678;10.924;2022-08-21T02:13:17;10.07;;;6.85;;
38085;SDS011;23896;50.678;10.924;2022-08-21T02:15:44;7.15;;;6.55;;
38085;SDS011;23896;50.678;10.924;2022-08-21T02:18:10;7.30;;;6.60;;
38085;SDS011;23896;50.678;10.924;2022-08-21T02:20:39;7.38;;;6.70;;
38085;SDS011;23896;50.678;10.924;2022-08-21T02:23:06;7.47;;;6.70;;
38085;SDS011;23896;50.678;10.924;2022-08-21T02:25:34;6.97;;;6.30;;
38085;SDS011;23896;50.678;10.924;2022-08-21T02:28:02;6.90;;;6.30;;
38085;SDS011;23896;50.678;10.924;2022-08-21T02:30:33;7.18;;;6.47;;
38085;SDS011;23896;50.678;10.924;2022-08-21T02:33:00;7.03;;;6.50;;
38085;SDS011;23896;50.678;10.924;2022-08-21T02:35:27;11.82;;;7.10;;
38085;SDS011;23896;50.678;10.924;2022-08-21T02:38:00;8.98;;;6.55;;
38085;SDS011;23896;50.678;10.924;2022-08-21T02:40:28;7.22;;;6.53;;
38085;SDS011;23896;50.678;10.924;2022-08-21T02:42:56;8.77;;;7.15;;
38085;SDS011;23896;50.678;10.924;2022-08-21T02:45:22;7.10;;;6.40;;
38085;SDS011;23896;50.678;10.924;2022-08-21T02:47:50;7.50;;;6.80;;
38085;SDS011;23896;50.678;10.924;2022-08-21T02:50:22;7.28;;;6.60;;
38085;SDS011;23896;50.678;10.924;2022-08-21T02:52:49;7.07;;;6.47;;
38085;SDS011;23896;50.678;10.924;2022-08-21T02:55:18;7.75;;;7.00;;
38085;SDS011;23896;50.678;10.924;2022-08-21T02:57:45;6.88;;;6.28;;
38085;SDS011;23896;50.678;10.924;2022-08-21T03:00:12;8.30;;;7.50;;
38085;SDS011;23896;50.678;10.924;2022-08-21T03:02:39;8.60;;;7.80;;
38085;SDS011;23896;50.678;10.924;2022-08-21T03:05:06;8.25;;;7.50;;
38085;SDS011;23896;50.678;10.924;2022-08-21T03:07:33;7.45;;;6.40;;
38085;SDS011;23896;50.678;10.924;2022-08-21T03:09:59;7.70;;;7.00;;
38085;SDS011;23896;50.678;10.924;2022-08-21T03:12:26;8.57;;;7.50;;
38085;SDS011;23896;50.678;10.924;2022-08-21T03:14:52;7.95;;;7.25;;
38085;SDS011;23896;50.678;10.924;2022-08-21T03:17:18;7.32;;;6.63;;
38085;SDS011;23896;50.678;10.924;2022-08-21T03:19:45;8.55;;;7.53;;
38085;SDS011;23896;50.678;10.924;2022-08-21T03:22:11;8.20;;;7.45;;
38085;SDS011;23896;50.678;10.924;2022-08-21T03:24:38;8.18;;;7.38;;
38085;SDS011;23896;50.678;10.924;2022-08-21T03:27:04;8.73;;;7.30;;
38085;SDS011;23896;50.678;10.924;2022-08-21T03:29:31;8.32;;;7.53;;
38085;SDS011;23896;50.678;10.924;2022-08-21T03:31:57;7.68;;;6.97;;
38085;SDS011;23896;50.678;10.924;2022-08-21T03:34:23;10.13;;;8.63;;
38085;SDS011;23896;50.678;10.924;2022-08-21T03:36:50;9.90;;;8.82;;
38085;SDS011;23896;50.678;10.924;2022-08-21T03:39:16;8.73;;;7.90;;
38085;SDS011;23896;50.678;10.924;2022-08-21T03:41:43;9.27;;;8.35;;
38085;SDS011;23896;50.678;10.924;2022-08-21T03:44:10;9.57;;;8.48;;
38085;SDS011;23896;50.678;10.924;2022-08-21T03:46:37;9.32;;;8.35;;
38085;SDS011;23896;50.678;10.924;2022-08-21T03:49:05;9.18;;;7.75;;
38085;SDS011;23896;50.678;10.924;2022-08-21T03:51:32;8.32;;;7.53;;
38085;SDS011;23896;50.678;10.924;2022-08-21T03:54:00;7.85;;;7.13;;
38085;SDS011;23896;50.678;10.924;2022-08-21T03:56:27;9.23;;;8.32;;
38085;SDS011;23896;50.678;10.924;2022-08-21T03:58:53;8.55;;;7.75;;
38085;SDS011;23896;50.678;10.924;2022-08-21T04:01:20;8.85;;;8.02;;
38085;SDS011;23896;50.678;10.924;2022-08-21T04:03:48;12.18;;;8.80;;
38085;SDS011;23896;50.678;10.924;2022-08-21T04:06:16;9.82;;;8.45;;
38085;SDS011;23896;50.678;10.924;2022-08-21T04:08:43;11.15;;;8.15;;
38085;SDS011;23896;50.678;10.924;2022-08-21T04:11:10;9.35;;;8.35;;
38085;SDS011;23896;50.678;10.924;2022-08-21T04:13:37;11.40;;;9.13;;
38085;SDS011;23896;50.678;10.924;2022-08-21T04:16:05;11.15;;;9.00;;
38085;SDS011;23896;50.678;10.924;2022-08-21T04:18:33;9.80;;;8.80;;
38085;SDS011;23896;50.678;10.924;2022-08-21T04:21:01;10.18;;;9.13;;
38085;SDS011;23896;50.678;10.924;2022-08-21T04:23:28;10.50;;;9.40;;
38085;SDS011;23896;50.678;10.924;2022-08-21T04:25:57;11.48;;;10.18;;
38085;SDS011;23896;50.678;10.924;2022-08-21T04:28:26;11.50;;;9.93;;
38085;SDS011;23896;50.678;10.924;2022-08-21T04:30:53;11.02;;;9.70;;
38085;SDS011;23896;50.678;10.924;2022-08-21T04:33:21;10.75;;;9.65;;
38085;SDS011;23896;50.678;10.924;2022-08-21T04:35:48;12.45;;;10.27;;
38085;SDS011;23896;50.678;10.924;2022-08-21T04:38:15;12.57;;;10.50;;
38085;SDS011;23896;50.678;10.924;2022-08-21T04:40:43;11.52;;;10.32;;
38085;SDS011;23896;50.678;10.924;2022-08-21T04:43:10;12.70;;;11.40;;
38085;SDS011;23896;50.678;10.924;2022-08-21T04:45:39;11.48;;;10.07;;
38085;SDS011;23896;50.678;10.924;2022-08-21T04:48:06;11.18;;;10.05;;
38085;SDS011;23896;50.678;10.924;2022-08-21T04:53:30;11.93;;;10.35;;
38085;SDS011;23896;50.678;10.924;2022-08-21T04:55:57;11.20;;;9.95;;
38085;SDS011;23896;50.678;10.924;2022-08-21T04:58:26;11.73;;;10.05;;
38085;SDS011;23896;50.678;10.924;2022-08-21T05:00:56;12.82;;;11.43;;
38085;SDS011;23896;50.678;10.924;2022-08-21T05:03:24;12.68;;;10.77;;
38085;SDS011;23896;50.678;10.924;2022-08-21T05:05:52;11.68;;;10.43;;
38085;SDS011;23896;50.678;10.924;2022-08-21T05:08:19;13.43;;;10.70;;
38085;SDS011;23896;50.678;10.924;2022-08-21T05:10:47;11.32;;;10.13;;
38085;SDS011;23896;50.678;10.924;2022-08-21T05:13:15;12.20;;;11.00;;
38085;SDS011;23896;50.678;10.924;2022-08-21T05:15:43;10.88;;;9.57;;
38085;SDS011;23896;50.678;10.924;2022-08-21T05:18:10;12.10;;;10.20;;
38085;SDS011;23896;50.678;10.924;2022-08-21T05:20:37;10.00;;;9.10;;
38085;SDS011;23896;50.678;10.924;2022-08-21T05:23:09;11.63;;;10.40;;
38085;SDS011;23896;50.678;10.924;2022-08-21T05:25:37;9.73;;;8.73;;
38085;SDS011;23896;50.678;10.924;2022-08-21T05:28:05;10.63;;;9.60;;
38085;SDS011;23896;50.678;10.924;2022-08-21T05:30:33;12.18;;;10.98;;
38085;SDS011;23896;50.678;10.924;2022-08-21T05:33:03;11.52;;;10.30;;
38085;SDS011;23896;50.678;10.924;2022-08-21T05:35:33;13.73;;;11.20;;
38085;SDS011;23896;50.678;10.924;2022-08-21T05:38:01;11.00;;;9.90;;
38085;SDS011;23896;50.678;10.924;2022-08-21T05:40:29;11.98;;;10.40;;
38085;SDS011;23896;50.678;10.924;2022-08-21T05:42:59;10.90;;;9.88;;
38085;SDS011;23896;50.678;10.924;2022-08-21T05:45:27;11.80;;;9.88;;
38085;SDS011;23896;50.678;10.924;2022-08-21T05:47:53;12.20;;;10.90;;
38085;SDS011;23896;50.678;10.924;2022-08-21T05:50:20;15.45;;;11.20;;
38085;SDS011;23896;50.678;10.924;2022-08-21T05:52:46;10.73;;;9.73;;
38085;SDS011;23896;50.678;10.924;2022-08-21T05:55:16;10.52;;;9.52;;
38085;SDS011;23896;50.678;10.924;2022-08-21T05:57:42;10.48;;;9.45;;
38085;SDS011;23896;50.678;10.924;2022-08-21T06:00:09;10.25;;;9.25;;
38085;SDS011;23896;50.678;10.924;2022-08-21T06:02:37;11.40;;;10.30;;
38085;SDS011;23896;50.678;10.924;2022-08-21T06:05:04;10.57;;;9.48;;
38085;SDS011;23896;50.678;10.924;2022-08-21T06:07:30;10.93;;;9.77;;
38085;SDS011;23896;50.678;10.924;2022-08-21T06:09:57;10.50;;;9.48;;
38085;SDS011;23896;50.678;10.924;2022-08-21T06:12:23;19.70;;;9.98;;
38085;SDS011;23896;50.678;10.924;2022-08-21T06:14:50;11.77;;;10.45;;
38085;SDS011;23896;50.678;10.924;2022-08-21T06:17:17;10.57;;;9.68;;
38085;SDS011;23896;50.678;10.924;2022-08-21T06:19:44;11.05;;;9.98;;
38085;SDS011;23896;50.678;10.924;2022-08-21T06:22:10;11.65;;;10.55;;
38085;SDS011;23896;50.678;10.924;2022-08-21T06:24:38;11.60;;;10.50;;
38085;SDS011;23896;50.678;10.924;2022-08-21T06:27:05;12.52;;;11.23;;
38085;SDS011;23896;50.678;10.924;2022-08-21T06:29:32;12.30;;;11.10;;
38085;SDS011;23896;50.678;10.924;2022-08-21T06:32:00;11.55;;;10.50;;
38085;SDS011;23896;50.678;10.924;2022-08-21T06:34:28;10.75;;;9.75;;
38085;SDS011;23896;50.678;10.924;2022-08-21T06:36:56;11.48;;;10.38;;
38085;SDS011;23896;50.678;10.924;2022-08-21T06:39:24;11.98;;;10.82;;
38085;SDS011;23896;50.678;10.924;2022-08-21T06:41:53;12.90;;;11.70;;
38085;SDS011;23896;50.678;10.924;2022-08-21T06:44:20;12.25;;;11.15;;
38085;SDS011;23896;50.678;10.924;2022-08-21T06:46:46;12.77;;;11.48;;
38085;SDS011;23896;50.678;10.924;2022-08-21T06:49:14;12.77;;;11.43;;
38085;SDS011;23896;50.678;10.924;2022-08-21T06:51:41;12.43;;;11.30;;
38085;SDS011;23896;50.678;10.924;2022-08-21T06:54:08;13.52;;;11.93;;
38085;SDS011;23896;50.678;10.924;2022-08-21T06:56:36;14.38;;;12.98;;
38085;SDS011;23896;50.678;10.924;2022-08-21T06:59:04;13.30;;;12.00;;
38085;SDS011;23896;50.678;10.924;2022-08-21T07:01:32;13.20;;;11.90;;
38085;SDS011;23896;50.678;10.924;2022-08-21T07:03:59;14.27;;;12.88;;
38085;SDS011;23896;50.678;10.924;2022-08-21T07:06:26;12.45;;;11.13;;
38085;SDS011;23896;50.678;10.924;2022-08-21T07:08:52;12.93;;;11.73;;
38085;SDS011;23896;50.678;10.924;2022-08-21T07:11:21;11.73;;;10.55;;
38085;SDS011;23896;50.678;10.924;2022-08-21T07:13:48;12.55;;;11.35;;
38085;SDS011;23896;50.678;10.924;2022-08-21T07:16:16;14.13;;;12.70;;
38085;SDS011;23896;50.678;10.924;2022-08-21T07:18:42;13.10;;;11.80;;
38085;SDS011;23896;50.678;10.924;2022-08-21T07:21:09;14.30;;;12.40;;
38085;SDS011;23896;50.678;10.924;2022-08-21T07:23:42;15.55;;;13.43;;
38085;SDS011;23896;50.678;10.924;2022-08-21T07:26:10;13.68;;;12.38;;
38085;SDS011;23896;50.678;10.924;2022-08-21T07:28:37;13.73;;;12.43;;
38085;SDS011;23896;50.678;10.924;2022-08-21T07:31:04;15.55;;;13.88;;
38085;SDS011;23896;50.678;10.924;2022-08-21T07:33:31;16.00;;;12.43;;
38085;SDS011;23896;50.678;10.924;2022-08-21T07:35:57;15.63;;;11.38;;
38085;SDS011;23896;50.678;10.924;2022-08-21T07:38:24;13.82;;;12.43;;
38085;SDS011;23896;50.678;10.924;2022-08-21T07:40:51;11.93;;;10.73;;
38085;SDS011;23896;50.678;10.924;2022-08-21T07:43:21;12.20;;;10.63;;
38085;SDS011;23896;50.678;10.924;2022-08-21T07:45:48;11.13;;;10.13;;
38085;SDS011;23896;50.678;10.924;2022-08-21T07:48:15;11.27;;;10.13;;
38085;SDS011;23896;50.678;10.924;2022-08-21T07:50:42;12.82;;;10.65;;
38085;SDS011;23896;50.678;10.924;2022-08-21T07:53:08;11.55;;;10.40;;
38085;SDS011;23896;50.678;10.924;2022-08-21T07:55:36;14.25;;;11.55;;
38085;SDS011;23896;50.678;10.924;2022-08-21T07:58:02;12.70;;;11.40;;
38085;SDS011;23896;50.678;10.924;2022-08-21T08:00:29;12.75;;;11.55;;
38085;SDS011;23896;50.678;10.924;2022-08-21T08:02:56;13.70;;;12.30;;
38085;SDS011;23896;50.678;10.924;2022-08-21T08:05:25;13.60;;;12.30;;
38085;SDS011;23896;50.678;10.924;2022-08-21T08:07:51;12.93;;;11.77;;
38085;SDS011;23896;50.678;10.924;2022-08-21T08:10:18;11.68;;;10.50;;
38085;SDS011;23896;50.678;10.924;2022-08-21T08:12:45;14.07;;;11.38;;
38085;SDS011;23896;50.678;10.924;2022-08-21T08:15:14;15.52;;;13.90;;
38085;SDS011;23896;50.678;10.924;2022-08-21T08:17:41;15.10;;;12.90;;
38085;SDS011;23896;50.678;10.924;2022-08-21T08:20:08;14.65;;;12.23;;
38085;SDS011;23896;50.678;10.924;2022-08-21T08:22:35;12.85;;;11.55;;
38085;SDS011;23896;50.678;10.924;2022-08-21T08:25:03;13.90;;;11.38;;
38085;SDS011;23896;50.678;10.924;2022-08-21T08:27:30;11.75;;;10.57;;
38085;SDS011;23896;50.678;10.924;2022-08-21T08:30:00;12.90;;;11.70;;
38085;SDS011;23896;50.678;10.924;2022-08-21T08:32:26;11.30;;;10.20;;
38085;SDS011;23896;50.678;10.924;2022-08-21T08:34:53;13.27;;;11.05;;
38085;SDS011;23896;50.678;10.924;2022-08-21T08:37:19;12.48;;;11.13;;
38085;SDS011;23896;50.678;10.924;2022-08-21T08:39:49;12.50;;;11.35;;
38085;SDS011;23896;50.678;10.924;2022-08-21T08:42:27;14.00;;;12.48;;
38085;SDS011;23896;50.678;10.924;2022-08-21T08:45:05;19.13;;;11.85;;
38085;SDS011;23896;50.678;10.924;2022-08-21T08:47:34;13.45;;;12.13;;
38085;SDS011;23896;50.678;10.924;2022-08-21T08:50:06;12.77;;;11.27;;
38085;SDS011;23896;50.678;10.924;2022-08-21T08:52:34;13.27;;;11.38;;
38085;SDS011;23896;50.678;10.924;2022-08-21T08:55:35;12.30;;;11.05;;
38085;SDS011;23896;50.678;10.924;2022-08-21T08:57:54;14.75;;;12.60;;
38085;SDS011;23896;50.678;10.924;2022-08-21T09:00:22;17.05;;;11.82;;
38085;SDS011;23896;50.678;10.924;2022-08-21T09:02:51;12.35;;;9.93;;
38085;SDS011;23896;50.678;10.924;2022-08-21T09:05:23;10.75;;;9.40;;
38085;SDS011;23896;50.678;10.924;2022-08-21T09:10:22;10.07;;;9.07;;
38085;SDS011;23896;50.678;10.924;2022-08-21T09:23:08;9.80;;;8.77;;
38085;SDS011;23896;50.678;10.924;2022-08-21T09:25:45;12.13;;;10.07;;
38085;SDS011;23896;50.678;10.924;2022-08-21T09:28:15;11.02;;;9.80;;
38085;SDS011;23896;50.678;10.924;2022-08-21T09:30:41;15.07;;;12.23;;
38085;SDS011;23896;50.678;10.924;2022-08-21T09:33:09;9.32;;;8.52;;
38085;SDS011;23896;50.678;10.924;2022-08-21T09:35:47;9.95;;;8.23;;
38085;SDS011;23896;50.678;10.924;2022-08-21T09:38:21;8.65;;;7.85;;
38085;SDS011;23896;50.678;10.924;2022-08-21T09:40:57;9.85;;;8.07;;
38085;SDS011;23896;50.678;10.924;2022-08-21T09:43:24;8.88;;;8.07;;
38085;SDS011;23896;50.678;10.924;2022-08-21T09:46:19;9.32;;;8.15;;
38085;SDS011;23896;50.678;10.924;2022-08-21T09:48:47;9.20;;;7.93;;
38085;SDS011;23896;50.678;10.924;2022-08-21T09:51:15;7.97;;;7.20;;
38085;SDS011;23896;50.678;10.924;2022-08-21T09:53:44;9.90;;;8.57;;
38085;SDS011;23896;50.678;10.924;2022-08-21T09:56:20;11.50;;;7.78;;
38085;SDS011;23896;50.678;10.924;2022-08-21T09:59:17;9.43;;;6.93;;
38085;SDS011;23896;50.678;10.924;2022-08-21T10:01:45;8.68;;;7.20;;
38085;SDS011;23896;50.678;10.924;2022-08-21T10:04:12;8.50;;;7.63;;
38085;SDS011;23896;50.678;10.924;2022-08-21T10:06:39;9.25;;;6.85;;
38085;SDS011;23896;50.678;10.924;2022-08-21T10:09:09;6.70;;;6.20;;
38085;SDS011;23896;50.678;10.924;2022-08-21T10:11:36;9.10;;;8.15;;
38085;SDS011;23896;50.678;10.924;2022-08-21T10:14:18;9.50;;;8.60;;
38085;SDS011;23896;50.678;10.924;2022-08-21T10:27:32;9.00;;;7.25;;
38085;SDS011;23896;50.678;10.924;2022-08-21T10:32:46;8.07;;;6.37;;
38085;SDS011;23896;50.678;10.924;2022-08-21T10:40:38;7.63;;;5.45;;
38085;SDS011;23896;50.678;10.924;2022-08-21T10:43:18;5.80;;;5.22;;
38085;SDS011;23896;50.678;10.924;2022-08-21T10:48:31;7.18;;;5.15;;
38085;SDS011;23896;50.678;10.924;2022-08-21T10:51:04;6.47;;;5.20;;
38085;SDS011;23896;50.678;10.924;2022-08-21T10:53:35;9.25;;;5.10;;
38085;SDS011;23896;50.678;10.924;2022-08-21T10:58:37;5.50;;;5.00;;
38085;SDS011;23896;50.678;10.924;2022-08-21T11:01:08;6.00;;;5.40;;
38085;SDS011;23896;50.678;10.924;2022-08-21T11:03:40;7.22;;;5.18;;
38085;SDS011;23896;50.678;10.924;2022-08-21T11:06:13;7.15;;;4.60;;
38085;SDS011;23896;50.678;10.924;2022-08-21T11:08:42;6.70;;;4.82;;
38085;SDS011;23896;50.678;10.924;2022-08-21T11:11:32;6.30;;;4.80;;
38085;SDS011;23896;50.678;10.924;2022-08-21T11:18:53;8.50;;;4.88;;
38085;SDS011;23896;50.678;10.924;2022-08-21T11:29:31;7.15;;;4.63;;
38085;SDS011;23896;50.678;10.924;2022-08-21T11:32:08;6.18;;;5.03;;
38085;SDS011;23896;50.678;10.924;2022-08-21T11:37:36;4.75;;;3.80;;
38085;SDS011;23896;50.678;10.924;2022-08-21T11:43:25;6.40;;;4.05;;
38085;SDS011;23896;50.678;10.924;2022-08-21T11:50:27;5.60;;;4.30;;
38085;SDS011;23896;50.678;10.924;2022-08-21T11:53:02;5.78;;;3.88;;
38085;SDS011;23896;50.678;10.924;2022-08-21T11:55:36;4.38;;;3.92;;
38085;SDS011;23896;50.678;10.924;2022-08-21T11:58:07;6.75;;;3.70;;
38085;SDS011;23896;50.678;10.924;2022-08-21T12:00:39;8.13;;;3.60;;
38085;SDS011;23896;50.678;10.924;2022-08-21T12:03:10;4.03;;;3.70;;
38085;SDS011;23896;50.678;10.924;2022-08-21T12:05:43;4.60;;;3.83;;
38085;SDS011;23896;50.678;10.924;2022-08-21T12:08:14;7.25;;;4.00;;
38085;SDS011;23896;50.678;10.924;2022-08-21T12:13:38;6.05;;;3.25;;
38085;SDS011;23896;50.678;10.924;2022-08-21T12:16:15;3.72;;;3.17;;
38085;SDS011;23896;50.678;10.924;2022-08-21T12:18:47;3.90;;;3.47;;
38085;SDS011;23896;50.678;10.924;2022-08-21T12:21:25;4.57;;;3.40;;
38085;SDS011;23896;50.678;10.924;2022-08-21T12:26:51;5.05;;;3.28;;
38085;SDS011;23896;50.678;10.924;2022-08-21T12:32:01;6.65;;;3.17;;
38085;SDS011;23896;50.678;10.924;2022-08-21T12:37:04;4.65;;;3.42;;
38085;SDS011;23896;50.678;10.924;2022-08-21T12:39:33;4.03;;;3.10;;
38085;SDS011;23896;50.678;10.924;2022-08-21T12:45:06;5.40;;;3.63;;
38085;SDS011;23896;50.678;10.924;2022-08-21T12:47:59;6.47;;;3.22;;
38085;SDS011;23896;50.678;10.924;2022-08-21T12:50:48;5.90;;;3.60;;
38085;SDS011;23896;50.678;10.924;2022-08-21T12:53:23;5.00;;;3.05;;
38085;SDS011;23896;50.678;10.924;2022-08-21T12:55:51;3.33;;;2.88;;
38085;SDS011;23896;50.678;10.924;2022-08-21T12:58:24;5.13;;;3.13;;
38085;SDS011;23896;50.678;10.924;2022-08-21T13:00:52;9.77;;;3.75;;
38085;SDS011;23896;50.678;10.924;2022-08-21T13:03:21;3.65;;;3.30;;
38085;SDS011;23896;50.678;10.924;2022-08-21T13:05:48;4.78;;;3.20;;
38085;SDS011;23896;50.678;10.924;2022-08-21T13:08:18;6.22;;;3.22;;
38085;SDS011;23896;50.678;10.924;2022-08-21T13:10:45;5.47;;;3.25;;
38085;SDS011;23896;50.678;10.924;2022-08-21T13:13:19;3.58;;;3.10;;
38085;SDS011;23896;50.678;10.924;2022-08-21T13:15:49;5.45;;;3.10;;
38085;SDS011;23896;50.678;10.924;2022-08-21T13:18:26;12.20;;;3.95;;
38085;SDS011;23896;50.678;10.924;2022-08-21T13:21:02;6.40;;;3.58;;
38085;SDS011;23896;50.678;10.924;2022-08-21T13:23:32;5.10;;;2.67;;
38085;SDS011;23896;50.678;10.924;2022-08-21T13:25:58;4.45;;;2.80;;
38085;SDS011;23896;50.678;10.924;2022-08-21T13:28:32;6.13;;;2.88;;
38085;SDS011;23896;50.678;10.924;2022-08-21T13:31:00;4.20;;;2.90;;
38085;SDS011;23896;50.678;10.924;2022-08-21T13:33:30;3.03;;;2.67;;
38085;SDS011;23896;50.678;10.924;2022-08-21T13:38:32;3.15;;;2.85;;
38085;SDS011;23896;50.678;10.924;2022-08-21T13:43:58;3.92;;;2.88;;
38085;SDS011;23896;50.678;10.924;2022-08-21T13:46:26;6.57;;;3.17;;
38085;SDS011;23896;50.678;10.924;2022-08-21T13:48:53;4.68;;;2.38;;
38085;SDS011;23896;50.678;10.924;2022-08-21T13:51:21;4.38;;;2.88;;
38085;SDS011;23896;50.678;10.924;2022-08-21T13:53:49;2.75;;;2.55;;
38085;SDS011;23896;50.678;10.924;2022-08-21T13:56:24;5.05;;;3.15;;
38085;SDS011;23896;50.678;10.924;2022-08-21T13:58:54;3.13;;;2.83;;
38085;SDS011;23896;50.678;10.924;2022-08-21T14:01:28;3.58;;;2.63;;
38085;SDS011;23896;50.678;10.924;2022-08-21T14:04:01;3.80;;;2.80;;
38085;SDS011;23896;50.678;10.924;2022-08-21T14:06:32;5.63;;;3.03;;
38085;SDS011;23896;50.678;10.924;2022-08-21T14:11:44;4.70;;;2.17;;
38085;SDS011;23896;50.678;10.924;2022-08-21T14:14:22;2.95;;;2.65;;
38085;SDS011;23896;50.678;10.924;2022-08-21T14:16:57;8.40;;;3.53;;
38085;SDS011;23896;50.678;10.924;2022-08-21T14:19:35;9.77;;;2.80;;
38085;SDS011;23896;50.678;10.924;2022-08-21T14:22:27;3.55;;;2.40;;
38085;SDS011;23896;50.678;10.924;2022-08-21T14:24:49;5.35;;;2.78;;
38085;SDS011;23896;50.678;10.924;2022-08-21T14:27:33;4.13;;;2.40;;
38085;SDS011;23896;50.678;10.924;2022-08-21T14:30:13;5.65;;;2.47;;
38085;SDS011;23896;50.678;10.924;2022-08-21T14:32:49;4.57;;;2.63;;
38085;SDS011;23896;50.678;10.924;2022-08-21T14:35:18;3.08;;;2.50;;
38085;SDS011;23896;50.678;10.924;2022-08-21T14:37:46;5.45;;;2.65;;
38085;SDS011;23896;50.678;10.924;2022-08-21T14:40:15;3.58;;;2.53;;
38085;SDS011;23896;50.678;10.924;2022-08-21T14:42:46;3.00;;;2.40;;
38085;SDS011;23896;50.678;10.924;2022-08-21T14:45:17;2.92;;;2.63;;
38085;SDS011;23896;50.678;10.924;2022-08-21T14:47:47;4.97;;;2.42;;
38085;SDS011;23896;50.678;10.924;2022-08-21T14:50:16;6.03;;;2.53;;
38085;SDS011;23896;50.678;10.924;2022-08-21T14:52:43;5.35;;;2.42;;
38085;SDS011;23896;50.678;10.924;2022-08-21T14:55:16;5.43;;;2.40;;
38085;SDS011;23896;50.678;10.924;2022-08-21T14:57:50;6.15;;;2.35;;
38085;SDS011;23896;50.678;10.924;2022-08-21T15:00:23;3.05;;;1.92;;
38085;SDS011;23896;50.678;10.924;2022-08-21T15:02:50;5.97;;;2.40;;
38085;SDS011;23896;50.678;10.924;2022-08-21T15:05:17;3.42;;;2.80;;
38085;SDS011;23896;50.678;10.924;2022-08-21T15:07:44;4.15;;;2.33;;
38085;SDS011;23896;50.678;10.924;2022-08-21T15:10:13;4.07;;;2.25;;
38085;SDS011;23896;50.678;10.924;2022-08-21T15:12:40;2.42;;;2.20;;
38085;SDS011;23896;50.678;10.924;2022-08-21T15:15:06;4.93;;;2.08;;
38085;SDS011;23896;50.678;10.924;2022-08-21T15:17:35;5.53;;;2.28;;
38085;SDS011;23896;50.678;10.924;2022-08-21T15:20:02;6.85;;;2.15;;
38085;SDS011;23896;50.678;10.924;2022-08-21T15:22:41;2.97;;;2.28;;
38085;SDS011;23896;50.678;10.924;2022-08-21T15:25:08;3.03;;;2.08;;
38085;SDS011;23896;50.678;10.924;2022-08-21T15:27:35;4.82;;;2.30;;
38085;SDS011;23896;50.678;10.924;2022-08-21T15:30:04;3.80;;;2.15;;
38085;SDS011;23896;50.678;10.924;2022-08-21T15:32:31;3.25;;;2.50;;
38085;SDS011;23896;50.678;10.924;2022-08-21T15:34:58;4.47;;;2.25;;
38085;SDS011;23896;50.678;10.924;2022-08-21T15:37:25;3.13;;;2.15;;
38085;SDS011;23896;50.678;10.924;2022-08-21T15:39:55;5.43;;;2.50;;
38085;SDS011;23896;50.678;10.924;2022-08-21T15:42:22;2.53;;;1.95;;
38085;SDS011;23896;50.678;10.924;2022-08-21T15:44:52;2.72;;;2.05;;
38085;SDS011;23896;50.678;10.924;2022-08-21T15:47:21;2.70;;;1.83;;
38085;SDS011;23896;50.678;10.924;2022-08-21T15:49:48;2.13;;;1.80;;
38085;SDS011;23896;50.678;10.924;2022-08-21T15:52:15;4.55;;;1.85;;
38085;SDS011;23896;50.678;10.924;2022-08-21T15:54:42;3.88;;;2.13;;
38085;SDS011;23896;50.678;10.924;2022-08-21T15:57:10;5.63;;;2.55;;
38085;SDS011;23896;50.678;10.924;2022-08-21T16:03:12;3.65;;;2.13;;
38085;SDS011;23896;50.678;10.924;2022-08-21T16:05:42;2.92;;;1.77;;